createdAt,value
2018-04-08T00:00:47.953Z,73.55
2018-04-08T00:01:47.878Z,72.78
2018-04-08T00:02:47.804Z,73.36
2018-04-08T00:03:47.728Z,72.88
2018-04-08T00:04:47.656Z,73.36
2018-04-08T00:05:47.579Z,73.93
2018-04-08T00:06:47.504Z,73.55
2018-04-08T00:07:47.429Z,73.36
2018-04-08T00:08:47.353Z,73.36
2018-04-08T00:09:47.282Z,73.17
2018-04-08T00:10:47.203Z,73.17
2018-04-08T00:11:47.129Z,73.17
2018-04-08T00:12:47.053Z,74.12
2018-04-08T00:13:46.978Z,73.93
2018-04-08T00:14:46.908Z,75.32
2018-04-08T00:15:46.828Z,75.32
2018-04-08T00:16:46.753Z,75.70
2018-04-08T00:17:46.677Z,75.42
2018-04-08T00:18:46.603Z,75.32
2018-04-08T00:19:46.528Z,74.94
2018-04-08T00:20:46.451Z,75.26
2018-04-08T00:21:46.376Z,75.07
2018-04-08T00:22:46.301Z,74.98
2018-04-08T00:23:46.227Z,74.18
2018-04-08T00:24:46.150Z,74.94
2018-04-08T00:25:46.076Z,74.69
2018-04-08T00:26:46.001Z,76.08
2018-04-08T00:27:45.925Z,76.18
2018-04-08T00:28:45.850Z,77.22
2018-04-08T00:29:45.775Z,76.46
2018-04-08T00:30:45.700Z,75.60
2018-04-08T00:31:45.626Z,76.18
2018-04-08T00:32:45.548Z,76.75
2018-04-08T00:33:45.476Z,76.94
2018-04-08T00:34:45.398Z,75.60
2018-04-08T00:35:45.323Z,76.18
2018-04-08T00:36:45.247Z,77.70
2018-04-08T00:37:45.172Z,76.37
2018-04-08T00:38:45.096Z,75.51
2018-04-08T00:39:45.022Z,75.13
2018-04-08T00:40:44.946Z,74.84
2018-04-08T00:41:44.870Z,74.88
2018-04-08T00:42:44.795Z,75.64
2018-04-08T00:43:44.720Z,74.98
2018-04-08T00:44:44.644Z,75.32
2018-04-08T00:45:44.569Z,75.42
2018-04-08T00:46:44.494Z,76.56
2018-04-08T00:47:44.419Z,76.75
2018-04-08T00:48:44.343Z,76.84
2018-04-08T00:49:44.268Z,77.42
2018-04-08T00:50:44.194Z,77.98
2018-04-08T00:51:44.117Z,77.51
2018-04-08T00:52:44.041Z,76.94
2018-04-08T00:53:43.970Z,77.89
2018-04-08T00:54:43.891Z,78.08
2018-04-08T00:55:43.815Z,77.42
2018-04-08T00:56:43.739Z,77.42
2018-04-08T00:57:43.664Z,78.85
2018-04-08T00:58:43.589Z,77.89
2018-04-08T00:59:43.514Z,77.13
2018-04-08T01:00:43.437Z,76.90
2018-04-08T01:01:43.364Z,77.32
2018-04-08T01:02:43.288Z,75.99
2018-04-08T01:03:43.212Z,75.04
2018-04-08T01:04:43.135Z,75.42
2018-04-08T01:05:43.060Z,76.08
2018-04-08T01:06:42.984Z,76.56
2018-04-08T01:07:42.909Z,76.56
2018-04-08T01:08:42.833Z,74.75
2018-04-08T01:09:42.759Z,75.89
2018-04-08T01:10:42.682Z,75.42
2018-04-08T01:11:42.607Z,74.84
2018-04-08T01:12:42.531Z,74.75
2018-04-08T01:13:42.459Z,75.42
2018-04-08T01:14:42.384Z,74.94
2018-04-08T01:15:42.305Z,75.13
2018-04-08T01:16:42.230Z,75.70
2018-04-08T01:17:42.154Z,75.13
2018-04-08T01:18:42.086Z,75.42
2018-04-08T01:19:42.003Z,74.75
2018-04-08T01:20:41.927Z,74.94
2018-04-08T01:21:41.852Z,75.04
2018-04-08T01:22:41.777Z,75.23
2018-04-08T01:23:41.701Z,76.27
2018-04-08T01:24:41.623Z,75.42
2018-04-08T01:25:41.550Z,74.56
2018-04-08T01:26:41.474Z,75.42
2018-04-08T01:27:41.401Z,76.56
2018-04-08T01:28:41.321Z,75.51
2018-04-08T01:29:41.247Z,76.08
2018-04-08T01:30:41.172Z,76.18
2018-04-08T01:31:41.096Z,75.67
2018-04-08T01:32:41.020Z,75.42
2018-04-08T01:33:40.944Z,75.99
2018-04-08T01:34:40.870Z,75.13
2018-04-08T01:35:40.795Z,75.23
2018-04-08T01:36:40.718Z,74.75
2018-04-08T01:37:40.642Z,74.84
2018-04-08T01:38:40.566Z,74.84
2018-04-08T01:39:40.492Z,75.42
2018-04-08T01:40:40.415Z,74.94
2018-04-08T01:41:40.340Z,74.75
2018-04-08T01:42:40.267Z,75.51
2018-04-08T01:43:40.189Z,75.32
2018-04-08T01:44:40.112Z,75.60
2018-04-08T01:45:40.038Z,77.03
2018-04-08T01:46:39.962Z,76.94
2018-04-08T01:47:39.886Z,77.66
2018-04-08T01:48:39.810Z,76.61
2018-04-08T01:49:39.734Z,77.19
2018-04-08T01:50:39.660Z,76.90
2018-04-08T01:51:39.583Z,77.28
2018-04-08T01:52:39.508Z,76.90
2018-04-08T01:53:39.432Z,76.71
2018-04-08T01:54:39.357Z,76.71
2018-04-08T01:55:39.281Z,76.65
2018-04-08T01:56:39.206Z,77.09
2018-04-08T01:57:39.129Z,77.00
2018-04-08T01:58:39.059Z,77.09
2018-04-08T01:59:38.980Z,77.09
2018-04-08T02:00:38.904Z,76.33
2018-04-08T02:01:38.828Z,77.00
2018-04-08T02:02:38.752Z,76.52
2018-04-08T02:03:38.676Z,76.52
2018-04-08T02:04:38.601Z,78.14
2018-04-08T02:05:38.528Z,77.56
2018-04-08T02:06:38.448Z,78.42
2018-04-08T02:07:38.374Z,78.90
2018-04-08T02:08:38.298Z,78.42
2018-04-08T02:09:38.222Z,77.37
2018-04-08T02:10:38.145Z,77.00
2018-04-08T02:11:38.070Z,77.47
2018-04-08T02:12:37.994Z,77.47
2018-04-08T02:13:37.918Z,77.76
2018-04-08T02:14:37.842Z,76.61
2018-04-08T02:15:37.769Z,77.47
2018-04-08T02:16:37.691Z,76.71
2018-04-08T02:17:37.615Z,77.00
2018-04-08T02:18:37.547Z,77.28
2018-04-08T02:19:37.461Z,76.90
2018-04-08T02:20:37.391Z,76.81
2018-04-08T02:21:37.310Z,77.47
2018-04-08T02:22:37.235Z,77.95
2018-04-08T02:23:37.158Z,78.23
2018-04-08T02:24:37.084Z,77.09
2018-04-08T02:25:37.008Z,77.56
2018-04-08T02:26:36.932Z,78.04
2018-04-08T02:27:36.855Z,76.90
2018-04-08T02:28:36.780Z,76.90
2018-04-08T02:29:36.704Z,76.04
2018-04-08T02:30:36.629Z,77.09
2018-04-08T02:31:36.553Z,77.19
2018-04-08T02:32:36.475Z,77.95
2018-04-08T02:33:36.399Z,78.04
2018-04-08T02:34:36.325Z,79.19
2018-04-08T02:35:36.249Z,79.57
2018-04-08T02:36:36.172Z,78.33
2018-04-08T02:37:36.095Z,78.99
2018-04-08T02:38:36.020Z,79.52
2018-04-08T02:39:35.944Z,78.48
2018-04-08T02:40:35.869Z,78.14
2018-04-08T02:41:35.792Z,77.85
2018-04-08T02:42:35.716Z,77.66
2018-04-08T02:43:35.641Z,76.52
2018-04-08T02:44:35.564Z,76.14
2018-04-08T02:45:35.488Z,76.71
2018-04-08T02:46:35.413Z,77.28
2018-04-08T02:47:35.344Z,76.23
2018-04-08T02:48:35.259Z,78.42
2018-04-08T02:49:35.184Z,79.28
2018-04-08T02:50:35.107Z,78.23
2018-04-08T02:51:35.032Z,78.14
2018-04-08T02:52:34.955Z,79.28
2018-04-08T02:53:34.878Z,79.43
2018-04-08T02:54:34.805Z,79.33
2018-04-08T02:55:34.727Z,79.05
2018-04-08T02:56:34.649Z,79.05
2018-04-08T02:57:34.574Z,79.62
2018-04-08T02:58:34.498Z,79.24
2018-04-08T02:59:34.421Z,79.43
2018-04-08T03:00:34.346Z,78.96
2018-04-08T03:01:34.269Z,78.77
2018-04-08T03:02:34.194Z,79.33
2018-04-08T03:03:34.130Z,79.05
2018-04-08T03:04:34.041Z,79.05
2018-04-08T03:05:33.968Z,79.05
2018-04-08T03:06:33.888Z,79.43
2018-04-08T03:07:33.819Z,79.24
2018-04-08T03:08:33.741Z,78.96
2018-04-08T03:09:33.661Z,79.24
2018-04-08T03:10:33.585Z,79.72
2018-04-08T03:11:33.509Z,79.62
2018-04-08T03:12:33.432Z,79.14
2018-04-08T03:13:33.354Z,79.05
2018-04-08T03:14:33.280Z,80.00
2018-04-08T03:15:33.204Z,80.66
2018-04-08T03:16:33.130Z,80.38
2018-04-08T03:17:33.051Z,80.57
2018-04-08T03:18:32.974Z,79.52
2018-04-08T03:19:32.899Z,79.52
2018-04-08T03:20:32.822Z,79.52
2018-04-08T03:21:32.744Z,79.43
2018-04-08T03:22:32.669Z,79.14
2018-04-08T03:23:32.625Z,79.72
2018-04-08T03:24:32.516Z,79.24
2018-04-08T03:25:32.439Z,79.81
2018-04-08T03:26:32.364Z,79.62
2018-04-08T03:27:32.287Z,79.14
2018-04-08T03:28:32.212Z,81.33
2018-04-08T03:29:32.135Z,80.00
2018-04-08T03:30:32.068Z,81.05
2018-04-08T03:31:31.985Z,81.05
2018-04-08T03:32:31.911Z,81.77
2018-04-08T03:33:31.829Z,81.14
2018-04-08T03:34:31.754Z,80.76
2018-04-08T03:35:31.677Z,80.57
2018-04-08T03:36:31.600Z,79.81
2018-04-08T03:37:31.524Z,80.19
2018-04-08T03:38:31.448Z,80.57
2018-04-08T03:39:31.373Z,81.14
2018-04-08T03:40:31.296Z,81.71
2018-04-08T03:41:31.219Z,81.05
2018-04-08T03:42:31.143Z,82.09
2018-04-08T03:43:31.067Z,81.86
2018-04-08T03:44:30.989Z,81.86
2018-04-08T03:45:30.913Z,82.71
2018-04-08T03:46:30.837Z,82.62
2018-04-08T03:47:30.761Z,82.15
2018-04-08T03:48:30.683Z,82.53
2018-04-08T03:49:30.606Z,81.96
2018-04-08T03:50:30.531Z,81.96
2018-04-08T03:51:30.455Z,82.24
2018-04-08T03:52:30.380Z,81.43
2018-04-08T03:53:30.300Z,82.15
2018-04-08T03:54:30.225Z,82.34
2018-04-08T03:55:30.151Z,81.48
2018-04-08T03:56:30.070Z,81.96
2018-04-08T03:57:29.995Z,81.96
2018-04-08T03:58:29.919Z,82.24
2018-04-08T03:59:29.842Z,82.91
2018-04-08T04:00:29.765Z,82.34
2018-04-08T04:01:29.692Z,82.71
2018-04-08T04:02:29.612Z,83.19
2018-04-08T04:03:29.536Z,83.39
2018-04-08T04:04:29.457Z,82.34
2018-04-08T04:05:29.383Z,82.53
2018-04-08T04:06:29.304Z,82.81
2018-04-08T04:07:29.230Z,83.67
2018-04-08T04:08:29.151Z,82.53
2018-04-08T04:09:29.075Z,82.71
2018-04-08T04:10:28.997Z,82.43
2018-04-08T04:11:28.922Z,83.76
2018-04-08T04:12:28.844Z,82.43
2018-04-08T04:13:28.768Z,82.91
2018-04-08T04:14:28.690Z,83.67
2018-04-08T04:15:28.614Z,83.00
2018-04-08T04:16:28.537Z,82.71
2018-04-08T04:17:28.460Z,82.15
2018-04-08T04:18:28.384Z,82.15
2018-04-08T04:19:28.311Z,82.05
2018-04-08T04:20:28.230Z,82.15
2018-04-08T04:21:28.153Z,82.05
2018-04-08T04:22:28.077Z,82.15
2018-04-08T04:23:28.001Z,81.77
2018-04-08T04:24:27.923Z,81.52
2018-04-08T04:25:27.847Z,82.19
2018-04-08T04:26:27.770Z,82.19
2018-04-08T04:27:27.693Z,82.15
2018-04-08T04:28:27.616Z,81.86
2018-04-08T04:29:27.539Z,82.05
2018-04-08T04:30:27.462Z,81.77
2018-04-08T04:31:27.390Z,82.05
2018-04-08T04:32:27.310Z,82.53
2018-04-08T04:33:27.232Z,82.81
2018-04-08T04:34:27.156Z,83.19
2018-04-08T04:35:27.079Z,83.29
2018-04-08T04:36:27.001Z,84.33
2018-04-08T04:37:26.926Z,83.29
2018-04-08T04:38:26.850Z,82.71
2018-04-08T04:39:26.772Z,82.53
2018-04-08T04:40:26.696Z,83.58
2018-04-08T04:41:26.620Z,83.19
2018-04-08T04:42:26.543Z,83.29
2018-04-08T04:43:26.466Z,83.76
2018-04-08T04:44:26.387Z,83.86
2018-04-08T04:45:26.311Z,84.24
2018-04-08T04:46:26.234Z,84.05
2018-04-08T04:47:26.157Z,83.67
2018-04-08T04:48:26.081Z,83.10
2018-04-08T04:49:26.004Z,82.95
2018-04-08T04:50:25.928Z,82.76
2018-04-08T04:51:25.850Z,82.86
2018-04-08T04:52:25.775Z,82.95
2018-04-08T04:53:25.697Z,82.67
2018-04-08T04:54:25.620Z,83.29
2018-04-08T04:55:25.543Z,83.67
2018-04-08T04:56:25.469Z,84.33
2018-04-08T04:57:25.389Z,83.86
2018-04-08T04:58:25.314Z,85.10
2018-04-08T04:59:25.237Z,85.00
2018-04-08T05:00:25.159Z,85.10
2018-04-08T05:01:25.083Z,84.91
2018-04-08T05:02:25.006Z,85.00
2018-04-08T05:03:24.929Z,85.66
2018-04-08T05:04:24.851Z,86.24
2018-04-08T05:05:24.775Z,86.80
2018-04-08T05:06:24.697Z,86.52
2018-04-08T05:07:24.622Z,87.19
2018-04-08T05:08:24.545Z,86.80
2018-04-08T05:09:24.467Z,87.57
2018-04-08T05:10:24.389Z,86.99
2018-04-08T05:11:24.319Z,86.80
2018-04-08T05:12:24.237Z,86.24
2018-04-08T05:13:24.160Z,85.57
2018-04-08T05:14:24.082Z,86.05
2018-04-08T05:15:24.006Z,85.66
2018-04-08T05:16:23.929Z,85.57
2018-04-08T05:17:23.852Z,85.57
2018-04-08T05:18:23.777Z,86.90
2018-04-08T05:19:23.700Z,85.47
2018-04-08T05:20:23.622Z,85.66
2018-04-08T05:21:23.546Z,86.24
2018-04-08T05:22:23.470Z,85.66
2018-04-08T05:23:23.394Z,86.80
2018-04-08T05:24:23.315Z,86.05
2018-04-08T05:25:23.239Z,85.76
2018-04-08T05:26:23.163Z,85.38
2018-04-08T05:27:23.086Z,85.57
2018-04-08T05:28:23.007Z,85.47
2018-04-08T05:29:22.931Z,85.76
2018-04-08T05:30:22.856Z,86.14
2018-04-08T05:31:22.778Z,85.38
2018-04-08T05:32:22.702Z,86.33
2018-04-08T05:33:22.625Z,86.99
2018-04-08T05:34:22.547Z,86.24
2018-04-08T05:35:22.472Z,85.90
2018-04-08T05:36:22.394Z,85.04
2018-04-08T05:37:22.319Z,86.52
2018-04-08T05:38:22.242Z,86.94
2018-04-08T05:39:22.166Z,86.47
2018-04-08T05:40:22.091Z,85.99
2018-04-08T05:41:22.013Z,87.13
2018-04-08T05:42:21.938Z,87.13
2018-04-08T05:43:21.858Z,86.38
2018-04-08T05:44:21.780Z,86.76
2018-04-08T05:45:21.705Z,86.28
2018-04-08T05:46:21.628Z,85.42
2018-04-08T05:47:21.553Z,85.61
2018-04-08T05:48:21.476Z,85.04
2018-04-08T05:49:21.399Z,84.66
2018-04-08T05:50:21.323Z,84.00
2018-04-08T05:51:21.247Z,83.90
2018-04-08T05:52:21.171Z,84.28
2018-04-08T05:53:21.094Z,84.52
2018-04-08T05:54:21.019Z,85.18
2018-04-08T05:55:20.943Z,83.75
2018-04-08T05:56:20.864Z,84.52
2018-04-08T05:57:20.788Z,85.08
2018-04-08T05:58:21.012Z,85.18
2018-04-08T05:59:20.638Z,83.65
2018-04-08T06:00:20.559Z,84.52
2018-04-08T06:01:20.486Z,84.23
2018-04-08T06:02:20.410Z,83.09
2018-04-08T06:03:20.332Z,82.46
2018-04-08T06:04:20.255Z,80.46
2018-04-08T06:05:20.179Z,79.80
2018-04-08T06:06:20.104Z,80.69
2018-04-08T06:07:20.028Z,80.36
2018-04-08T06:08:19.952Z,81.36
2018-04-08T06:09:19.876Z,79.74
2018-04-08T06:10:19.801Z,81.36
2018-04-08T06:11:19.730Z,81.84
2018-04-08T06:12:19.651Z,80.50
2018-04-08T06:13:19.573Z,81.36
2018-04-08T06:14:19.496Z,81.36
2018-04-08T06:15:19.421Z,81.36
2018-04-08T06:16:19.351Z,82.21
2018-04-08T06:17:19.271Z,83.45
2018-04-08T06:18:19.195Z,82.89
2018-04-08T06:19:19.119Z,82.31
2018-04-08T06:20:19.043Z,81.55
2018-04-08T06:21:18.972Z,79.74
2018-04-08T06:22:18.892Z,79.36
2018-04-08T06:23:18.816Z,80.54
2018-04-08T06:24:18.742Z,80.54
2018-04-08T06:25:18.667Z,80.07
2018-04-08T06:26:18.592Z,78.54
2018-04-08T06:27:18.516Z,77.87
2018-04-08T06:28:18.442Z,76.77
2018-04-08T06:29:18.367Z,74.57
2018-04-08T06:30:18.310Z,75.81
2018-04-08T06:31:18.218Z,76.81
2018-04-08T06:32:18.141Z,75.09
2018-04-08T06:33:18.068Z,73.66
2018-04-08T06:34:17.993Z,72.13
2018-04-08T06:35:17.919Z,72.13
2018-04-08T06:36:17.844Z,71.41
2018-04-08T06:37:17.770Z,71.21
2018-04-08T06:38:17.696Z,70.26
2018-04-08T06:39:17.621Z,70.20
2018-04-08T06:40:17.548Z,71.25
2018-04-08T06:41:17.474Z,70.87
2018-04-08T06:42:17.400Z,69.43
2018-04-08T06:43:17.325Z,68.86
2018-04-08T06:44:17.257Z,69.43
2018-04-08T06:45:17.178Z,71.19
2018-04-08T06:46:17.104Z,69.85
2018-04-08T06:47:17.034Z,67.75
2018-04-08T06:48:16.956Z,69.47
2018-04-08T06:49:16.883Z,67.36
2018-04-08T06:50:16.809Z,67.75
2018-04-08T06:51:16.736Z,67.88
2018-04-08T06:52:16.664Z,68.74
2018-04-08T06:53:16.595Z,68.07
2018-04-08T06:54:16.517Z,67.11
2018-04-08T06:55:16.444Z,66.83
2018-04-08T06:56:16.369Z,67.21
2018-04-08T06:57:16.297Z,66.03
2018-04-08T06:58:16.224Z,66.63
2018-04-08T06:59:16.153Z,66.73
2018-04-08T07:00:16.078Z,66.73
2018-04-08T07:01:16.007Z,65.68
2018-04-08T07:02:15.933Z,65.68
2018-04-08T07:03:15.862Z,66.35
2018-04-08T07:04:15.792Z,66.44
2018-04-08T07:05:15.751Z,65.97
2018-04-08T07:06:15.642Z,67.49
2018-04-08T07:07:15.571Z,66.83
2018-04-08T07:08:15.497Z,67.11
2018-04-08T07:09:15.426Z,67.21
2018-04-08T07:10:15.354Z,67.21
2018-04-08T07:11:15.281Z,67.59
2018-04-08T07:12:15.208Z,65.87
2018-04-08T07:13:15.138Z,65.58
2018-04-08T07:14:15.062Z,65.77
2018-04-08T07:15:14.989Z,66.54
2018-04-08T07:16:14.919Z,66.35
2018-04-08T07:17:14.844Z,66.44
2018-04-08T07:18:14.771Z,66.63
2018-04-08T07:19:14.699Z,66.44
2018-04-08T07:20:14.627Z,67.78
2018-04-08T07:21:14.555Z,69.12
2018-04-08T07:22:14.483Z,67.30
2018-04-08T07:23:14.417Z,65.68
2018-04-08T07:24:14.336Z,66.44
2018-04-08T07:25:14.265Z,66.86
2018-04-08T07:26:14.192Z,66.57
2018-04-08T07:27:14.121Z,65.33
2018-04-08T07:28:14.048Z,65.90
2018-04-08T07:29:13.976Z,65.42
2018-04-08T07:30:13.903Z,65.52
2018-04-08T07:31:13.832Z,66.09
2018-04-08T07:32:13.758Z,65.26
2018-04-08T07:33:13.687Z,65.84
2018-04-08T07:34:13.615Z,64.79
2018-04-08T07:35:13.544Z,64.79
2018-04-08T07:36:13.472Z,63.64
2018-04-08T07:37:13.399Z,63.54
2018-04-08T07:38:13.326Z,63.93
2018-04-08T07:39:13.260Z,65.36
2018-04-08T07:40:13.183Z,65.17
2018-04-08T07:41:13.111Z,63.93
2018-04-08T07:42:13.039Z,64.72
2018-04-08T07:43:12.967Z,64.12
2018-04-08T07:44:12.943Z,63.00
2018-04-08T07:45:12.824Z,64.31
2018-04-08T07:46:12.752Z,63.93
2018-04-08T07:47:12.683Z,66.25
2018-04-08T07:48:12.610Z,65.88
2018-04-08T07:49:12.537Z,65.01
2018-04-08T07:50:12.465Z,63.76
2018-04-08T07:51:12.395Z,63.96
2018-04-08T07:52:12.322Z,62.90
2018-04-08T07:53:12.251Z,62.07
2018-04-08T07:54:12.179Z,62.33
2018-04-08T07:55:12.109Z,63.39
2018-04-08T07:56:12.039Z,63.99
2018-04-08T07:57:11.965Z,64.47
2018-04-08T07:58:11.893Z,66.77
2018-04-08T07:59:11.827Z,65.62
2018-04-08T08:00:11.751Z,65.14
2018-04-08T08:01:11.680Z,64.47
2018-04-08T08:02:11.610Z,63.26
2018-04-08T08:03:11.537Z,65.94
2018-04-08T08:04:11.465Z,62.10
2018-04-08T08:05:11.394Z,62.20
2018-04-08T08:06:11.323Z,61.82
2018-04-08T08:07:11.252Z,62.55
2018-04-08T08:08:11.180Z,63.54
2018-04-08T08:09:11.113Z,61.05
2018-04-08T08:10:11.038Z,62.20
2018-04-08T08:11:11.021Z,63.35
2018-04-08T08:12:10.896Z,63.16
2018-04-08T08:13:10.826Z,62.30
2018-04-08T08:14:10.754Z,61.05
2018-04-08T08:15:10.682Z,60.57
2018-04-08T08:16:10.612Z,61.53
2018-04-08T08:17:10.542Z,61.53
2018-04-08T08:18:10.470Z,62.20
2018-04-08T08:19:10.399Z,61.34
2018-04-08T08:20:10.328Z,61.34
2018-04-08T08:21:10.259Z,60.09
2018-04-08T08:22:10.186Z,59.80
2018-04-08T08:23:10.114Z,59.71
2018-04-08T08:24:10.043Z,61.56
2018-04-08T08:25:09.976Z,60.57
2018-04-08T08:26:09.903Z,59.06
2018-04-08T08:27:09.832Z,59.45
2018-04-08T08:28:09.760Z,59.93
2018-04-08T08:29:09.722Z,59.83
2018-04-08T08:30:09.620Z,61.08
2018-04-08T08:31:09.548Z,61.75
2018-04-08T08:32:09.475Z,60.92
2018-04-08T08:33:09.406Z,59.96
2018-04-08T08:34:09.337Z,59.58
2018-04-08T08:35:09.267Z,58.91
2018-04-08T08:36:09.194Z,59.09
2018-04-08T08:37:09.124Z,58.14
2018-04-08T08:38:09.054Z,58.91
2018-04-08T08:39:08.982Z,57.65
2018-04-08T08:40:08.911Z,59.48
2018-04-08T08:41:08.842Z,60.35
2018-04-08T08:42:08.772Z,59.38
2018-04-08T08:43:08.706Z,59.38
2018-04-08T08:44:08.630Z,59.00
2018-04-08T08:45:08.559Z,59.29
2018-04-08T08:46:08.490Z,59.96
2018-04-08T08:47:08.422Z,59.96
2018-04-08T08:48:08.349Z,58.71
2018-04-08T08:49:08.292Z,59.32
2018-04-08T08:50:08.210Z,58.07
2018-04-08T08:51:08.141Z,57.50
2018-04-08T08:52:08.068Z,57.50
2018-04-08T08:53:08.005Z,59.61
2018-04-08T08:54:07.927Z,60.28
2018-04-08T08:55:07.859Z,60.57
2018-04-08T08:56:07.788Z,57.50
2018-04-08T08:57:07.718Z,59.61
2018-04-08T08:58:07.647Z,59.03
2018-04-08T08:59:07.577Z,58.39
2018-04-08T09:00:07.508Z,57.21
2018-04-08T09:01:07.440Z,55.99
2018-04-08T09:02:07.367Z,56.95
2018-04-08T09:03:07.298Z,57.81
2018-04-08T09:04:07.227Z,58.58
2018-04-08T09:05:07.157Z,56.95
2018-04-08T09:06:07.087Z,56.76
2018-04-08T09:07:07.017Z,55.99
2018-04-08T09:08:06.947Z,56.95
2018-04-08T09:09:06.888Z,56.85
2018-04-08T09:10:06.807Z,55.79
2018-04-08T09:11:06.738Z,56.08
2018-04-08T09:12:06.697Z,55.69
2018-04-08T09:13:06.598Z,56.18
2018-04-08T09:14:06.528Z,58.67
2018-04-08T09:15:06.459Z,57.65
2018-04-08T09:16:06.390Z,59.09
2018-04-08T09:17:06.319Z,56.30
2018-04-08T09:18:06.251Z,56.78
2018-04-08T09:19:06.179Z,55.44
2018-04-08T09:20:06.109Z,58.99
2018-04-08T09:21:06.039Z,57.26
2018-04-08T09:22:05.970Z,57.26
2018-04-08T09:23:05.901Z,56.01
2018-04-08T09:24:05.831Z,55.53
2018-04-08T09:25:05.760Z,54.96
2018-04-08T09:26:05.692Z,55.44
2018-04-08T09:27:05.626Z,56.01
2018-04-08T09:28:05.552Z,56.01
2018-04-08T09:29:05.535Z,56.08
2018-04-08T09:30:05.416Z,55.02
2018-04-08T09:31:05.344Z,54.83
2018-04-08T09:32:05.274Z,56.11
2018-04-08T09:33:05.204Z,55.82
2018-04-08T09:34:05.138Z,56.78
2018-04-08T09:35:05.067Z,56.21
2018-04-08T09:36:04.999Z,56.98
2018-04-08T09:37:04.928Z,57.26
2018-04-08T09:38:04.857Z,56.40
2018-04-08T09:39:04.789Z,55.53
2018-04-08T09:40:04.719Z,55.24
2018-04-08T09:41:04.649Z,55.05
2018-04-08T09:42:04.579Z,55.05
2018-04-08T09:43:04.510Z,56.40
2018-04-08T09:44:04.441Z,55.73
2018-04-08T09:45:04.372Z,55.53
2018-04-08T09:46:04.302Z,55.94
2018-04-08T09:47:04.239Z,56.04
2018-04-08T09:48:04.162Z,56.81
2018-04-08T09:49:04.093Z,56.81
2018-04-08T09:50:04.027Z,55.46
2018-04-08T09:51:03.955Z,57.00
2018-04-08T09:52:03.885Z,54.50
2018-04-08T09:53:03.814Z,54.12
2018-04-08T09:54:03.751Z,56.52
2018-04-08T09:55:03.721Z,55.76
2018-04-08T09:56:03.607Z,53.54
2018-04-08T09:57:03.538Z,54.41
2018-04-08T09:58:03.469Z,54.31
2018-04-08T09:59:03.399Z,54.22
2018-04-08T10:00:03.329Z,53.54
2018-04-08T10:01:03.261Z,54.79
2018-04-08T10:02:03.193Z,54.02
2018-04-08T10:03:03.125Z,53.16
2018-04-08T10:04:03.057Z,53.35
2018-04-08T10:05:02.988Z,53.06
2018-04-08T10:06:02.914Z,54.50
2018-04-08T10:07:02.845Z,54.24
2018-04-08T10:08:02.778Z,53.76
2018-04-08T10:09:02.706Z,52.42
2018-04-08T10:10:02.642Z,52.97
2018-04-08T10:11:02.569Z,52.89
2018-04-08T10:12:02.541Z,55.59
2018-04-08T10:13:02.429Z,54.53
2018-04-08T10:14:02.361Z,54.43
2018-04-08T10:15:02.294Z,53.31
2018-04-08T10:16:02.221Z,52.51
2018-04-08T10:17:02.153Z,51.96
2018-04-08T10:18:02.083Z,52.15
2018-04-08T10:19:02.019Z,52.42
2018-04-08T10:20:01.951Z,52.06
2018-04-08T10:21:01.879Z,52.15
2018-04-08T10:22:01.807Z,53.40
2018-04-08T10:23:01.742Z,53.31
2018-04-08T10:24:01.670Z,52.06
2018-04-08T10:25:01.601Z,53.31
2018-04-08T10:26:01.533Z,52.15
2018-04-08T10:27:01.462Z,53.11
2018-04-08T10:28:01.394Z,53.31
2018-04-08T10:29:01.387Z,53.11
2018-04-08T10:30:01.258Z,50.42
2018-04-08T10:31:01.188Z,50.71
2018-04-08T10:32:01.118Z,49.74
2018-04-08T10:33:01.050Z,49.84
2018-04-08T10:34:00.981Z,51.48
2018-04-08T10:35:00.912Z,51.79
2018-04-08T10:36:00.843Z,50.35
2018-04-08T10:37:00.775Z,51.79
2018-04-08T10:38:00.705Z,50.93
2018-04-08T10:39:00.638Z,50.95
2018-04-08T10:40:00.569Z,50.95
2018-04-08T10:41:00.500Z,52.23
2018-04-08T10:42:00.433Z,48.54
2018-04-08T10:43:00.365Z,49.73
2018-04-08T10:44:00.296Z,50.21
2018-04-08T10:45:00.229Z,50.11
2018-04-08T10:46:00.161Z,49.75
2018-04-08T10:47:00.094Z,49.94
2018-04-08T10:48:00.024Z,46.47
2018-04-08T10:48:59.957Z,45.89
2018-04-08T10:49:59.888Z,47.34
2018-04-08T10:50:59.822Z,45.89
2018-04-08T10:51:59.754Z,45.82
2018-04-08T10:52:59.690Z,46.40
2018-04-08T10:53:59.620Z,45.43
2018-04-08T10:54:59.552Z,44.76
2018-04-08T10:55:59.485Z,46.11
2018-04-08T10:56:59.418Z,45.34
2018-04-08T10:57:59.354Z,45.07
2018-04-08T10:58:59.286Z,44.56
2018-04-08T10:59:59.219Z,43.79
2018-04-08T11:00:59.152Z,44.29
2018-04-08T11:01:59.088Z,44.37
2018-04-08T11:02:59.020Z,44.97
2018-04-08T11:03:58.952Z,44.78
2018-04-08T11:04:58.954Z,45.96
2018-04-08T11:05:58.821Z,45.79
2018-04-08T11:06:58.757Z,45.01
2018-04-08T11:07:58.690Z,45.14
2018-04-08T11:08:58.628Z,43.08
2018-04-08T11:09:58.561Z,42.50
2018-04-08T11:10:58.495Z,42.19
2018-04-08T11:11:58.429Z,44.32
2018-04-08T11:12:58.364Z,47.24
2018-04-08T11:13:58.304Z,45.48
2018-04-08T11:14:58.236Z,43.26
2018-04-08T11:15:58.172Z,42.29
2018-04-08T11:16:58.148Z,44.03
2018-04-08T11:17:58.041Z,48.47
2018-04-08T11:18:57.975Z,45.69
2018-04-08T11:19:57.910Z,43.76
2018-04-08T11:20:57.847Z,45.31
2018-04-08T11:21:57.787Z,44.32
2018-04-08T11:22:57.718Z,42.31
2018-04-08T11:23:57.653Z,42.21
2018-04-08T11:24:57.592Z,42.52
2018-04-08T11:25:57.524Z,42.52
2018-04-08T11:26:57.459Z,42.83
2018-04-08T11:27:57.395Z,40.98
2018-04-08T11:28:57.332Z,41.94
2018-04-08T11:29:57.267Z,43.10
2018-04-08T11:30:57.205Z,43.90
2018-04-08T11:31:57.141Z,41.00
2018-04-08T11:32:57.077Z,40.15
2018-04-08T11:33:57.013Z,39.11
2018-04-08T11:34:56.950Z,38.96
2018-04-08T11:35:56.886Z,38.89
2018-04-08T11:36:56.825Z,38.62
2018-04-08T11:37:56.763Z,35.21
2018-04-08T11:38:57.000Z,35.40
2018-04-08T11:39:56.639Z,35.38
2018-04-08T11:40:56.578Z,35.88
2018-04-08T11:41:56.518Z,36.32
2018-04-08T11:42:56.459Z,36.22
2018-04-08T11:43:56.396Z,36.04
2018-04-08T11:44:56.336Z,36.73
2018-04-08T11:45:56.278Z,34.01
2018-04-08T11:46:56.218Z,34.42
2018-04-08T11:47:56.159Z,34.80
2018-04-08T11:48:56.100Z,34.16
2018-04-08T11:49:56.046Z,33.20
2018-04-08T11:50:55.984Z,33.67
2018-04-08T11:51:55.926Z,31.92
2018-04-08T11:52:55.870Z,32.42
2018-04-08T11:53:55.813Z,32.11
2018-04-08T11:54:55.755Z,32.50
2018-04-08T11:55:55.698Z,35.53
2018-04-08T11:56:55.641Z,33.59
2018-04-08T11:57:55.584Z,35.42
2018-04-08T11:58:55.528Z,35.42
2018-04-08T11:59:55.472Z,35.03
2018-04-08T12:00:55.415Z,32.29
2018-04-08T12:01:55.359Z,32.45
2018-04-08T12:02:55.306Z,33.33
2018-04-08T12:03:55.248Z,33.75
2018-04-08T12:04:55.193Z,32.40
2018-04-08T12:05:55.138Z,33.56
2018-04-08T12:06:55.083Z,33.95
2018-04-08T12:07:55.025Z,33.06
2018-04-08T12:08:54.969Z,32.00
2018-04-08T12:09:54.916Z,32.31
2018-04-08T12:10:54.861Z,30.77
2018-04-08T12:11:54.804Z,31.45
2018-04-08T12:12:54.751Z,32.13
2018-04-08T12:13:54.696Z,30.80
2018-04-08T12:14:54.640Z,31.79
2018-04-08T12:15:54.585Z,30.63
2018-04-08T12:16:54.530Z,31.52
2018-04-08T12:17:54.482Z,29.36
2018-04-08T12:18:54.424Z,29.71
2018-04-08T12:19:54.373Z,30.90
2018-04-08T12:20:54.315Z,31.49
2018-04-08T12:21:54.260Z,28.77
2018-04-08T12:22:54.207Z,31.88
2018-04-08T12:23:54.153Z,30.54
2018-04-08T12:24:54.099Z,30.73
2018-04-08T12:25:54.048Z,29.47
2018-04-08T12:26:53.994Z,27.97
2018-04-08T12:27:53.938Z,28.92
2018-04-08T12:28:53.884Z,29.60
2018-04-08T12:29:53.833Z,30.39
2018-04-08T12:30:53.779Z,28.72
2018-04-08T12:31:53.728Z,29.28
2018-04-08T12:32:53.672Z,32.02
2018-04-08T12:33:53.620Z,31.64
2018-04-08T12:34:53.566Z,30.88
2018-04-08T12:35:53.511Z,29.63
2018-04-08T12:36:53.458Z,29.71
2018-04-08T12:37:53.405Z,29.39
2018-04-08T12:38:53.354Z,30.47
2018-04-08T12:39:53.302Z,30.28
2018-04-08T12:40:53.245Z,30.96
2018-04-08T12:41:53.193Z,30.18
2018-04-08T12:42:53.138Z,30.87
2018-04-08T12:43:53.086Z,29.68
2018-04-08T12:44:53.032Z,30.17
2018-04-08T12:45:52.977Z,31.93
2018-04-08T12:46:52.924Z,31.96
2018-04-08T12:47:52.870Z,30.41
2018-04-08T12:48:52.819Z,30.51
2018-04-08T12:49:52.763Z,28.38
2018-04-08T12:50:52.710Z,30.49
2018-04-08T12:51:52.718Z,30.31